Newport, Minnesota
Current Conditions -  °F | °C
As of 11:30 PM on Sunday 19 Oct 2014 (Local Time) from KSGS Reporting Station
Clear Clear  
Wind Chill: 57°   Ceiling: Unl
Heat Index: 57°   Visibility: 10mi
Dew Point: 42°   Wind: 9mph
Humidity: 56%   Direction: 320°NW
Pressure: 29.84"   Gusts: 16mph
Location:  44.87°N, 93°W
Report Text: KSGS 200430Z AUTO 32008G14KT 10SM CLR 14/05 A2984 RMK AO2 T01400053
Loading
Personal Weather Stations






























Interactive Weather Map
Tropical Storm Tracking
New forecast layout! Learn more

10-Day Weather Forecast

Advertisements
Track Severe Weather on mobile